LF3824 weather

Public forecast

Using degrees Celsius for public forecast. Weather courtesy of forecast.io.

Closest aviation weather report (METAR) to Altisurface du Glacier de la Barbaratre

Closest report is Chambéry-Savoie Airport, 30.7 nm (56.8 km) NNW. Retrieved 2020/08/10 15:00 UTC (19 minutes ago):

LFLB 101500Z AUTO 36005KT CAVOK 34/18 Q1011 TEMPO VRB20G40KT 2000 TSRA SCT015 BKN070CB

Closest aviation forecast (TAF) to Altisurface du Glacier de la Barbaratre

Closest forecast is Chambéry-Savoie Airport, 30.7 nm (56.8 km) NNW. Retrieved 2020/08/10 12:47 UTC (3 hours ago):

TAF LFLB 101100Z 1012/1112 VRB03KT CAVOK TEMPO 1015/1101 FEW080CB PROB30 TEMPO 1015/1023 VRB20G40KT 2000 TSRA SCT015 BKN070CB